San Antonio North's Hourly Summary for Sunday, July 8, 2018
Hour Temp
(f)
RH
(%)
Solar Rad.
(MJ/m2)
Rainfall
(in)
Wind
(mph)
7/8/2018 12:00 AM 73 91 0 0 0.68
7/8/2018 1:00 AM 73 91 0 0 0.01
7/8/2018 2:00 AM 73 91 0 0 0.43
7/8/2018 3:00 AM 73 93 0 0 0.43
7/8/2018 4:00 AM 72 93 0 0 0.12
7/8/2018 5:00 AM 72 94 0 0 1.03
7/8/2018 6:00 AM 72 93 0 0 1.03
7/8/2018 7:00 AM 72 94 0.01 0 0.72
7/8/2018 8:00 AM 74 84 0.39 0 0.67
7/8/2018 9:00 AM 77 76 1.05 0 2.29
7/8/2018 10:00 AM 78 75 1.23 0 2.52
7/8/2018 11:00 AM 80 68 1.64 0 2.65
7/8/2018 12:00 PM 82 59 1.81 0 2.47
7/8/2018 1:00 PM 85 52 2.71 0 2.64
7/8/2018 2:00 PM 86 49 3.28 0 3.29
7/8/2018 3:00 PM 88 44 3.05 0 2.81
7/8/2018 4:00 PM 90 37 2.78 0 1.59
7/8/2018 5:00 PM 93 37 2.71 0 1.75
7/8/2018 6:00 PM 80 45 0.53 0.06 3.14
7/8/2018 7:00 PM 77 85 0.45 0.01 0.29
7/8/2018 8:00 PM 78 82 0.25 0 0.17
7/8/2018 9:00 PM 78 81 0.04 0 0.19
7/8/2018 10:00 PM 77 84 0 0 0.01
7/8/2018 11:00 PM 76 84 0 0 0
Data Summary 78 74 21.93 0.07 1.29